Ashmore, Illinois
Current Conditions -  °F | °C
As of 10:53 AM on Thursday 30 Oct 2014 (Local Time) from KMTO Reporting Station
Clear Clear  
Wind Chill:   Ceiling: Unl
Heat Index:   Visibility: 10mi
Dew Point:   Wind: 8mph
Humidity: 61%   Direction: 160°SSE
Pressure: 30.15"   Gusts: NA
Location:  39.53°N, 88.02°W
Report Text: KMTO 301553Z AUTO 16007KT 10SM CLR 09/02 A3015 RMK AO2 SLP212 T00890017
Loading
Personal Weather Stations






























Interactive Weather Map
Tropical Storm Tracking
New forecast layout! Learn more

10-Day Weather Forecast

Advertisements
Track Severe Weather on mobile